sensor_id;sensor_type;location;lat;lon;timestamp;P1;durP1;ratioP1;P2;durP2;ratioP2
36233;SDS011;43467;50.890;5.982;2022-07-04T00:02:24;3.92;;;1.60;;
36233;SDS011;43467;50.890;5.982;2022-07-04T00:04:50;2.22;;;1.10;;
36233;SDS011;43467;50.890;5.982;2022-07-04T00:07:15;2.22;;;1.35;;
36233;SDS011;43467;50.890;5.982;2022-07-04T00:09:41;3.55;;;1.45;;
36233;SDS011;43467;50.890;5.982;2022-07-04T00:12:06;2.17;;;1.45;;
36233;SDS011;43467;50.890;5.982;2022-07-04T00:14:32;6.55;;;1.80;;
36233;SDS011;43467;50.890;5.982;2022-07-04T00:16:58;2.00;;;1.30;;
36233;SDS011;43467;50.890;5.982;2022-07-04T00:19:23;3.17;;;1.50;;
36233;SDS011;43467;50.890;5.982;2022-07-04T00:21:48;3.25;;;1.10;;
36233;SDS011;43467;50.890;5.982;2022-07-04T00:24:14;1.45;;;1.35;;
36233;SDS011;43467;50.890;5.982;2022-07-04T00:26:39;3.05;;;1.38;;
36233;SDS011;43467;50.890;5.982;2022-07-04T00:29:04;4.78;;;1.45;;
36233;SDS011;43467;50.890;5.982;2022-07-04T00:31:30;3.70;;;2.47;;
36233;SDS011;43467;50.890;5.982;2022-07-04T00:33:55;3.50;;;1.67;;
36233;SDS011;43467;50.890;5.982;2022-07-04T00:36:21;1.98;;;1.20;;
36233;SDS011;43467;50.890;5.982;2022-07-04T00:38:46;4.15;;;1.20;;
36233;SDS011;43467;50.890;5.982;2022-07-04T00:41:12;3.28;;;1.45;;
36233;SDS011;43467;50.890;5.982;2022-07-04T00:43:38;3.50;;;1.80;;
36233;SDS011;43467;50.890;5.982;2022-07-04T00:46:03;5.75;;;2.05;;
36233;SDS011;43467;50.890;5.982;2022-07-04T00:48:30;3.95;;;1.50;;
36233;SDS011;43467;50.890;5.982;2022-07-04T00:50:56;4.50;;;1.52;;
36233;SDS011;43467;50.890;5.982;2022-07-04T00:53:22;4.65;;;1.98;;
36233;SDS011;43467;50.890;5.982;2022-07-04T00:55:49;3.97;;;1.90;;
36233;SDS011;43467;50.890;5.982;2022-07-04T00:58:22;4.50;;;1.80;;
36233;SDS011;43467;50.890;5.982;2022-07-04T01:00:48;3.63;;;1.42;;
36233;SDS011;43467;50.890;5.982;2022-07-04T01:03:14;4.50;;;1.48;;
36233;SDS011;43467;50.890;5.982;2022-07-04T01:05:40;2.53;;;1.25;;
36233;SDS011;43467;50.890;5.982;2022-07-04T01:08:07;3.25;;;1.52;;
36233;SDS011;43467;50.890;5.982;2022-07-04T01:10:32;4.50;;;1.65;;
36233;SDS011;43467;50.890;5.982;2022-07-04T01:12:58;5.88;;;1.63;;
36233;SDS011;43467;50.890;5.982;2022-07-04T01:15:23;3.15;;;1.73;;
36233;SDS011;43467;50.890;5.982;2022-07-04T01:17:49;2.67;;;1.90;;
36233;SDS011;43467;50.890;5.982;2022-07-04T01:20:15;3.50;;;1.70;;
36233;SDS011;43467;50.890;5.982;2022-07-04T01:22:41;3.40;;;1.50;;
36233;SDS011;43467;50.890;5.982;2022-07-04T01:25:07;3.40;;;1.58;;
36233;SDS011;43467;50.890;5.982;2022-07-04T01:27:33;3.13;;;1.50;;
36233;SDS011;43467;50.890;5.982;2022-07-04T01:29:59;3.15;;;1.65;;
36233;SDS011;43467;50.890;5.982;2022-07-04T01:32:25;2.75;;;1.30;;
36233;SDS011;43467;50.890;5.982;2022-07-04T01:34:50;3.75;;;1.50;;
36233;SDS011;43467;50.890;5.982;2022-07-04T01:37:15;2.20;;;1.30;;
36233;SDS011;43467;50.890;5.982;2022-07-04T01:39:41;4.78;;;1.63;;
36233;SDS011;43467;50.890;5.982;2022-07-04T01:42:07;7.13;;;1.70;;
36233;SDS011;43467;50.890;5.982;2022-07-04T01:44:32;4.00;;;1.52;;
36233;SDS011;43467;50.890;5.982;2022-07-04T01:46:58;1.67;;;1.13;;
36233;SDS011;43467;50.890;5.982;2022-07-04T01:49:23;4.82;;;1.65;;
36233;SDS011;43467;50.890;5.982;2022-07-04T01:51:50;2.55;;;1.55;;
36233;SDS011;43467;50.890;5.982;2022-07-04T01:54:16;2.75;;;1.40;;
36233;SDS011;43467;50.890;5.982;2022-07-04T01:56:42;7.63;;;1.98;;
36233;SDS011;43467;50.890;5.982;2022-07-04T01:59:08;2.97;;;1.30;;
36233;SDS011;43467;50.890;5.982;2022-07-04T02:01:34;2.60;;;1.27;;
36233;SDS011;43467;50.890;5.982;2022-07-04T02:04:00;6.03;;;1.80;;
36233;SDS011;43467;50.890;5.982;2022-07-04T02:06:27;4.05;;;1.42;;
36233;SDS011;43467;50.890;5.982;2022-07-04T02:08:53;3.72;;;1.85;;
36233;SDS011;43467;50.890;5.982;2022-07-04T02:11:37;5.10;;;1.80;;
36233;SDS011;43467;50.890;5.982;2022-07-04T02:14:21;5.60;;;1.70;;
36233;SDS011;43467;50.890;5.982;2022-07-04T02:16:47;3.15;;;1.75;;
36233;SDS011;43467;50.890;5.982;2022-07-04T02:19:12;2.95;;;1.33;;
36233;SDS011;43467;50.890;5.982;2022-07-04T02:21:38;3.92;;;1.77;;
36233;SDS011;43467;50.890;5.982;2022-07-04T02:24:03;4.00;;;1.83;;
36233;SDS011;43467;50.890;5.982;2022-07-04T02:26:29;1.77;;;1.42;;
36233;SDS011;43467;50.890;5.982;2022-07-04T02:28:54;5.18;;;1.60;;
36233;SDS011;43467;50.890;5.982;2022-07-04T02:31:20;3.25;;;1.50;;
36233;SDS011;43467;50.890;5.982;2022-07-04T02:33:45;4.25;;;1.50;;
36233;SDS011;43467;50.890;5.982;2022-07-04T02:36:10;4.53;;;1.48;;
36233;SDS011;43467;50.890;5.982;2022-07-04T02:38:36;4.50;;;1.77;;
36233;SDS011;43467;50.890;5.982;2022-07-04T02:41:01;4.53;;;1.60;;
36233;SDS011;43467;50.890;5.982;2022-07-04T02:43:26;2.13;;;1.63;;
36233;SDS011;43467;50.890;5.982;2022-07-04T02:45:52;2.95;;;1.38;;
36233;SDS011;43467;50.890;5.982;2022-07-04T02:48:18;3.70;;;1.50;;
36233;SDS011;43467;50.890;5.982;2022-07-04T02:50:43;2.97;;;1.30;;
36233;SDS011;43467;50.890;5.982;2022-07-04T02:53:09;5.20;;;2.13;;
36233;SDS011;43467;50.890;5.982;2022-07-04T02:55:34;4.75;;;1.25;;
36233;SDS011;43467;50.890;5.982;2022-07-04T02:58:00;3.10;;;1.50;;
36233;SDS011;43467;50.890;5.982;2022-07-04T03:00:25;5.68;;;2.00;;
36233;SDS011;43467;50.890;5.982;2022-07-04T03:02:51;5.63;;;2.13;;
36233;SDS011;43467;50.890;5.982;2022-07-04T03:05:16;3.25;;;1.50;;
36233;SDS011;43467;50.890;5.982;2022-07-04T03:07:42;3.90;;;1.60;;
36233;SDS011;43467;50.890;5.982;2022-07-04T03:10:07;4.70;;;1.70;;
36233;SDS011;43467;50.890;5.982;2022-07-04T03:12:33;10.98;;;2.75;;
36233;SDS011;43467;50.890;5.982;2022-07-04T03:14:58;4.53;;;1.35;;
36233;SDS011;43467;50.890;5.982;2022-07-04T03:17:24;4.10;;;1.67;;
36233;SDS011;43467;50.890;5.982;2022-07-04T03:19:50;3.33;;;1.58;;
36233;SDS011;43467;50.890;5.982;2022-07-04T03:22:16;4.75;;;1.48;;
36233;SDS011;43467;50.890;5.982;2022-07-04T03:24:42;2.33;;;1.50;;
36233;SDS011;43467;50.890;5.982;2022-07-04T03:27:08;5.15;;;2.05;;
36233;SDS011;43467;50.890;5.982;2022-07-04T03:29:33;3.63;;;1.67;;
36233;SDS011;43467;50.890;5.982;2022-07-04T03:32:00;3.28;;;1.73;;
36233;SDS011;43467;50.890;5.982;2022-07-04T03:34:25;3.65;;;1.65;;
36233;SDS011;43467;50.890;5.982;2022-07-04T03:36:51;3.97;;;1.60;;
36233;SDS011;43467;50.890;5.982;2022-07-04T03:39:16;4.28;;;2.08;;
36233;SDS011;43467;50.890;5.982;2022-07-04T03:41:42;5.28;;;1.40;;
36233;SDS011;43467;50.890;5.982;2022-07-04T03:44:07;5.20;;;1.40;;
36233;SDS011;43467;50.890;5.982;2022-07-04T03:46:32;3.28;;;1.52;;
36233;SDS011;43467;50.890;5.982;2022-07-04T03:48:58;5.75;;;1.80;;
36233;SDS011;43467;50.890;5.982;2022-07-04T03:51:24;3.20;;;1.77;;
36233;SDS011;43467;50.890;5.982;2022-07-04T03:53:50;5.00;;;1.70;;
36233;SDS011;43467;50.890;5.982;2022-07-04T03:56:16;5.40;;;2.00;;
36233;SDS011;43467;50.890;5.982;2022-07-04T03:58:41;3.28;;;1.52;;
36233;SDS011;43467;50.890;5.982;2022-07-04T04:01:14;3.28;;;1.52;;
36233;SDS011;43467;50.890;5.982;2022-07-04T04:03:42;3.75;;;1.80;;
36233;SDS011;43467;50.890;5.982;2022-07-04T04:06:26;3.13;;;1.50;;
36233;SDS011;43467;50.890;5.982;2022-07-04T04:08:52;5.82;;;1.33;;
36233;SDS011;43467;50.890;5.982;2022-07-04T04:11:17;4.40;;;1.30;;
36233;SDS011;43467;50.890;5.982;2022-07-04T04:13:43;4.20;;;1.50;;
36233;SDS011;43467;50.890;5.982;2022-07-04T04:16:08;2.67;;;1.50;;
36233;SDS011;43467;50.890;5.982;2022-07-04T04:18:34;10.10;;;1.95;;
36233;SDS011;43467;50.890;5.982;2022-07-04T04:20:59;4.13;;;1.52;;
36233;SDS011;43467;50.890;5.982;2022-07-04T04:23:25;4.97;;;1.90;;
36233;SDS011;43467;50.890;5.982;2022-07-04T04:25:50;4.82;;;1.45;;
36233;SDS011;43467;50.890;5.982;2022-07-04T04:28:16;3.75;;;1.20;;
36233;SDS011;43467;50.890;5.982;2022-07-04T04:30:41;2.75;;;1.42;;
36233;SDS011;43467;50.890;5.982;2022-07-04T04:33:06;3.50;;;1.20;;
36233;SDS011;43467;50.890;5.982;2022-07-04T04:35:32;3.17;;;1.40;;
36233;SDS011;43467;50.890;5.982;2022-07-04T04:37:57;3.40;;;1.10;;
36233;SDS011;43467;50.890;5.982;2022-07-04T04:40:23;3.08;;;1.30;;
36233;SDS011;43467;50.890;5.982;2022-07-04T04:42:48;3.17;;;1.30;;
36233;SDS011;43467;50.890;5.982;2022-07-04T04:45:13;1.80;;;1.20;;
36233;SDS011;43467;50.890;5.982;2022-07-04T04:47:39;2.40;;;1.15;;
36233;SDS011;43467;50.890;5.982;2022-07-04T04:50:06;3.67;;;1.35;;
36233;SDS011;43467;50.890;5.982;2022-07-04T04:52:36;5.70;;;1.50;;
36233;SDS011;43467;50.890;5.982;2022-07-04T04:55:01;4.30;;;1.40;;
36233;SDS011;43467;50.890;5.982;2022-07-04T04:57:26;4.22;;;1.33;;
36233;SDS011;43467;50.890;5.982;2022-07-04T04:59:52;3.97;;;1.48;;
36233;SDS011;43467;50.890;5.982;2022-07-04T05:02:17;3.30;;;1.55;;
36233;SDS011;43467;50.890;5.982;2022-07-04T05:04:43;3.53;;;1.42;;
36233;SDS011;43467;50.890;5.982;2022-07-04T05:07:08;3.35;;;1.30;;
36233;SDS011;43467;50.890;5.982;2022-07-04T05:09:33;2.08;;;1.35;;
36233;SDS011;43467;50.890;5.982;2022-07-04T05:11:59;2.88;;;1.73;;
36233;SDS011;43467;50.890;5.982;2022-07-04T05:14:24;3.67;;;1.45;;
36233;SDS011;43467;50.890;5.982;2022-07-04T05:16:49;3.60;;;1.58;;
36233;SDS011;43467;50.890;5.982;2022-07-04T05:19:15;3.58;;;1.63;;
36233;SDS011;43467;50.890;5.982;2022-07-04T05:21:40;4.35;;;1.50;;
36233;SDS011;43467;50.890;5.982;2022-07-04T05:24:06;5.82;;;1.52;;
36233;SDS011;43467;50.890;5.982;2022-07-04T05:26:31;4.07;;;1.70;;
36233;SDS011;43467;50.890;5.982;2022-07-04T05:28:57;4.35;;;1.20;;
36233;SDS011;43467;50.890;5.982;2022-07-04T05:31:22;2.22;;;1.20;;
36233;SDS011;43467;50.890;5.982;2022-07-04T05:33:49;4.22;;;1.65;;
36233;SDS011;43467;50.890;5.982;2022-07-04T05:36:16;5.55;;;1.67;;
36233;SDS011;43467;50.890;5.982;2022-07-04T05:38:41;1.77;;;1.00;;
36233;SDS011;43467;50.890;5.982;2022-07-04T05:41:06;3.90;;;1.13;;
36233;SDS011;43467;50.890;5.982;2022-07-04T05:43:32;4.53;;;1.50;;
36233;SDS011;43467;50.890;5.982;2022-07-04T05:45:57;2.70;;;1.23;;
36233;SDS011;43467;50.890;5.982;2022-07-04T05:48:23;3.63;;;1.27;;
36233;SDS011;43467;50.890;5.982;2022-07-04T05:50:48;5.97;;;1.80;;
36233;SDS011;43467;50.890;5.982;2022-07-04T05:53:13;2.95;;;1.50;;
36233;SDS011;43467;50.890;5.982;2022-07-04T05:55:39;3.90;;;1.95;;
36233;SDS011;43467;50.890;5.982;2022-07-04T05:58:04;3.92;;;1.73;;
36233;SDS011;43467;50.890;5.982;2022-07-04T06:00:30;3.55;;;1.60;;
36233;SDS011;43467;50.890;5.982;2022-07-04T06:02:55;3.92;;;1.63;;
36233;SDS011;43467;50.890;5.982;2022-07-04T06:05:20;4.78;;;1.52;;
36233;SDS011;43467;50.890;5.982;2022-07-04T06:07:46;4.18;;;1.58;;
36233;SDS011;43467;50.890;5.982;2022-07-04T06:10:13;4.35;;;1.75;;
36233;SDS011;43467;50.890;5.982;2022-07-04T06:12:38;5.10;;;1.58;;
36233;SDS011;43467;50.890;5.982;2022-07-04T06:15:04;7.32;;;1.55;;
36233;SDS011;43467;50.890;5.982;2022-07-04T06:17:31;9.20;;;1.88;;
36233;SDS011;43467;50.890;5.982;2022-07-04T06:19:57;6.40;;;2.67;;
36233;SDS011;43467;50.890;5.982;2022-07-04T06:22:22;8.82;;;2.42;;
36233;SDS011;43467;50.890;5.982;2022-07-04T06:24:47;3.00;;;1.67;;
36233;SDS011;43467;50.890;5.982;2022-07-04T06:27:13;6.60;;;1.95;;
36233;SDS011;43467;50.890;5.982;2022-07-04T06:29:38;5.70;;;2.38;;
36233;SDS011;43467;50.890;5.982;2022-07-04T06:32:05;9.15;;;2.25;;
36233;SDS011;43467;50.890;5.982;2022-07-04T06:34:31;7.05;;;2.80;;
36233;SDS011;43467;50.890;5.982;2022-07-04T06:37:15;4.30;;;2.13;;
36233;SDS011;43467;50.890;5.982;2022-07-04T06:39:40;3.67;;;2.03;;
36233;SDS011;43467;50.890;5.982;2022-07-04T06:42:06;4.45;;;1.80;;
36233;SDS011;43467;50.890;5.982;2022-07-04T06:44:31;3.88;;;1.77;;
36233;SDS011;43467;50.890;5.982;2022-07-04T06:46:57;3.63;;;1.95;;
36233;SDS011;43467;50.890;5.982;2022-07-04T06:49:22;4.18;;;2.17;;
36233;SDS011;43467;50.890;5.982;2022-07-04T06:51:47;5.35;;;2.15;;
36233;SDS011;43467;50.890;5.982;2022-07-04T06:54:13;5.45;;;2.03;;
36233;SDS011;43467;50.890;5.982;2022-07-04T06:56:39;5.28;;;1.90;;
36233;SDS011;43467;50.890;5.982;2022-07-04T06:59:04;4.63;;;1.52;;
36233;SDS011;43467;50.890;5.982;2022-07-04T07:01:30;5.43;;;2.40;;
36233;SDS011;43467;50.890;5.982;2022-07-04T07:03:55;3.70;;;1.70;;
36233;SDS011;43467;50.890;5.982;2022-07-04T07:06:20;6.65;;;1.85;;
36233;SDS011;43467;50.890;5.982;2022-07-04T07:08:48;8.73;;;1.77;;
36233;SDS011;43467;50.890;5.982;2022-07-04T07:11:14;5.40;;;1.75;;
36233;SDS011;43467;50.890;5.982;2022-07-04T07:13:45;4.85;;;2.15;;
36233;SDS011;43467;50.890;5.982;2022-07-04T07:16:12;8.45;;;2.20;;
36233;SDS011;43467;50.890;5.982;2022-07-04T07:18:38;4.47;;;1.70;;
36233;SDS011;43467;50.890;5.982;2022-07-04T07:21:04;4.88;;;2.00;;
36233;SDS011;43467;50.890;5.982;2022-07-04T07:23:29;6.85;;;2.20;;
36233;SDS011;43467;50.890;5.982;2022-07-04T07:25:55;3.80;;;1.83;;
36233;SDS011;43467;50.890;5.982;2022-07-04T07:28:20;4.80;;;2.05;;
36233;SDS011;43467;50.890;5.982;2022-07-04T07:30:46;5.43;;;2.33;;
36233;SDS011;43467;50.890;5.982;2022-07-04T07:33:11;17.75;;;4.60;;
36233;SDS011;43467;50.890;5.982;2022-07-04T07:35:37;24.80;;;3.92;;
36233;SDS011;43467;50.890;5.982;2022-07-04T07:38:02;12.73;;;2.88;;
36233;SDS011;43467;50.890;5.982;2022-07-04T07:40:28;11.52;;;2.92;;
36233;SDS011;43467;50.890;5.982;2022-07-04T07:42:54;27.27;;;4.80;;
36233;SDS011;43467;50.890;5.982;2022-07-04T07:45:20;5.90;;;2.38;;
36233;SDS011;43467;50.890;5.982;2022-07-04T07:47:46;7.30;;;2.38;;
36233;SDS011;43467;50.890;5.982;2022-07-04T07:50:11;5.25;;;2.13;;
36233;SDS011;43467;50.890;5.982;2022-07-04T07:52:37;8.90;;;2.58;;
36233;SDS011;43467;50.890;5.982;2022-07-04T07:55:03;5.57;;;2.03;;
36233;SDS011;43467;50.890;5.982;2022-07-04T07:57:29;4.07;;;1.80;;
36233;SDS011;43467;50.890;5.982;2022-07-04T07:59:55;7.78;;;1.88;;
36233;SDS011;43467;50.890;5.982;2022-07-04T08:02:21;4.10;;;1.85;;
36233;SDS011;43467;50.890;5.982;2022-07-04T08:05:06;7.17;;;1.83;;
36233;SDS011;43467;50.890;5.982;2022-07-04T08:07:32;6.20;;;1.80;;
36233;SDS011;43467;50.890;5.982;2022-07-04T08:09:57;4.40;;;1.90;;
36233;SDS011;43467;50.890;5.982;2022-07-04T08:12:23;5.43;;;1.75;;
36233;SDS011;43467;50.890;5.982;2022-07-04T08:14:48;6.43;;;1.30;;
36233;SDS011;43467;50.890;5.982;2022-07-04T08:17:14;4.63;;;1.63;;
36233;SDS011;43467;50.890;5.982;2022-07-04T08:19:39;4.43;;;1.63;;
36233;SDS011;43467;50.890;5.982;2022-07-04T08:22:04;10.90;;;2.08;;
36233;SDS011;43467;50.890;5.982;2022-07-04T08:24:30;7.97;;;1.88;;
36233;SDS011;43467;50.890;5.982;2022-07-04T08:26:55;7.95;;;1.50;;
36233;SDS011;43467;50.890;5.982;2022-07-04T08:29:21;9.27;;;1.70;;
36233;SDS011;43467;50.890;5.982;2022-07-04T08:31:47;6.05;;;1.35;;
36233;SDS011;43467;50.890;5.982;2022-07-04T08:34:13;11.80;;;1.70;;
36233;SDS011;43467;50.890;5.982;2022-07-04T08:36:38;8.43;;;1.98;;
36233;SDS011;43467;50.890;5.982;2022-07-04T08:39:04;3.95;;;1.60;;
36233;SDS011;43467;50.890;5.982;2022-07-04T08:41:32;5.80;;;1.67;;
36233;SDS011;43467;50.890;5.982;2022-07-04T08:44:01;5.05;;;1.67;;
36233;SDS011;43467;50.890;5.982;2022-07-04T08:46:28;4.18;;;1.80;;
36233;SDS011;43467;50.890;5.982;2022-07-04T08:48:55;4.70;;;1.60;;
36233;SDS011;43467;50.890;5.982;2022-07-04T08:54:06;5.15;;;1.60;;
36233;SDS011;43467;50.890;5.982;2022-07-04T08:56:53;10.35;;;1.98;;
36233;SDS011;43467;50.890;5.982;2022-07-04T08:59:39;3.13;;;1.52;;
36233;SDS011;43467;50.890;5.982;2022-07-04T09:02:05;7.45;;;1.80;;
36233;SDS011;43467;50.890;5.982;2022-07-04T09:04:31;6.88;;;1.70;;
36233;SDS011;43467;50.890;5.982;2022-07-04T09:06:57;6.25;;;1.85;;
36233;SDS011;43467;50.890;5.982;2022-07-04T09:09:23;5.00;;;1.50;;
36233;SDS011;43467;50.890;5.982;2022-07-04T09:11:50;8.00;;;2.08;;
36233;SDS011;43467;50.890;5.982;2022-07-04T09:14:16;6.28;;;1.95;;
36233;SDS011;43467;50.890;5.982;2022-07-04T09:16:41;8.75;;;2.03;;
36233;SDS011;43467;50.890;5.982;2022-07-04T09:19:14;6.07;;;1.65;;
36233;SDS011;43467;50.890;5.982;2022-07-04T09:21:45;9.77;;;1.80;;
36233;SDS011;43467;50.890;5.982;2022-07-04T09:24:11;7.13;;;1.48;;
36233;SDS011;43467;50.890;5.982;2022-07-04T09:26:39;6.10;;;2.15;;
36233;SDS011;43467;50.890;5.982;2022-07-04T09:29:08;5.97;;;1.60;;
36233;SDS011;43467;50.890;5.982;2022-07-04T09:31:34;5.63;;;1.40;;
36233;SDS011;43467;50.890;5.982;2022-07-04T09:34:02;7.53;;;1.80;;
36233;SDS011;43467;50.890;5.982;2022-07-04T09:36:31;7.85;;;1.90;;
36233;SDS011;43467;50.890;5.982;2022-07-04T09:39:05;5.22;;;1.52;;
36233;SDS011;43467;50.890;5.982;2022-07-04T09:41:49;4.95;;;2.03;;
36233;SDS011;43467;50.890;5.982;2022-07-04T09:44:17;3.30;;;1.50;;
36233;SDS011;43467;50.890;5.982;2022-07-04T09:46:42;8.55;;;2.00;;
36233;SDS011;43467;50.890;5.982;2022-07-04T09:49:10;6.07;;;1.63;;
36233;SDS011;43467;50.890;5.982;2022-07-04T09:51:37;6.03;;;1.58;;
36233;SDS011;43467;50.890;5.982;2022-07-04T09:54:22;10.00;;;1.95;;
36233;SDS011;43467;50.890;5.982;2022-07-04T09:56:53;4.38;;;1.70;;
36233;SDS011;43467;50.890;5.982;2022-07-04T09:59:20;5.93;;;1.80;;
36233;SDS011;43467;50.890;5.982;2022-07-04T10:01:46;4.72;;;1.77;;
36233;SDS011;43467;50.890;5.982;2022-07-04T10:04:12;5.32;;;1.40;;
36233;SDS011;43467;50.890;5.982;2022-07-04T10:06:41;3.83;;;1.70;;
36233;SDS011;43467;50.890;5.982;2022-07-04T10:09:16;6.55;;;1.67;;
36233;SDS011;43467;50.890;5.982;2022-07-04T10:11:43;4.03;;;1.35;;
36233;SDS011;43467;50.890;5.982;2022-07-04T10:14:11;9.20;;;2.15;;
36233;SDS011;43467;50.890;5.982;2022-07-04T10:16:39;5.30;;;1.52;;
36233;SDS011;43467;50.890;5.982;2022-07-04T10:19:08;3.63;;;1.13;;
36233;SDS011;43467;50.890;5.982;2022-07-04T10:21:35;4.85;;;1.67;;
36233;SDS011;43467;50.890;5.982;2022-07-04T10:24:01;4.53;;;2.17;;
36233;SDS011;43467;50.890;5.982;2022-07-04T10:26:28;8.27;;;1.67;;
36233;SDS011;43467;50.890;5.982;2022-07-04T10:28:54;5.68;;;1.73;;
36233;SDS011;43467;50.890;5.982;2022-07-04T10:31:21;4.30;;;1.38;;
36233;SDS011;43467;50.890;5.982;2022-07-04T10:33:49;4.53;;;1.15;;
36233;SDS011;43467;50.890;5.982;2022-07-04T10:36:18;5.90;;;1.75;;
36233;SDS011;43467;50.890;5.982;2022-07-04T10:41:14;4.07;;;1.27;;
36233;SDS011;43467;50.890;5.982;2022-07-04T10:46:29;7.15;;;1.83;;
36233;SDS011;43467;50.890;5.982;2022-07-04T10:54:03;6.32;;;1.60;;
36233;SDS011;43467;50.890;5.982;2022-07-04T10:58:55;1.83;;;1.00;;
36233;SDS011;43467;50.890;5.982;2022-07-04T11:01:22;3.95;;;1.20;;
36233;SDS011;43467;50.890;5.982;2022-07-04T11:03:52;4.13;;;1.45;;
36233;SDS011;43467;50.890;5.982;2022-07-04T11:11:51;3.80;;;1.08;;
36233;SDS011;43467;50.890;5.982;2022-07-04T11:14:30;3.25;;;1.02;;
36233;SDS011;43467;50.890;5.982;2022-07-04T11:17:19;5.57;;;1.55;;
36233;SDS011;43467;50.890;5.982;2022-07-04T11:20:01;4.82;;;1.35;;
36233;SDS011;43467;50.890;5.982;2022-07-04T11:22:28;2.90;;;0.73;;
36233;SDS011;43467;50.890;5.982;2022-07-04T11:24:54;3.10;;;1.10;;
36233;SDS011;43467;50.890;5.982;2022-07-04T11:27:23;6.45;;;1.15;;
36233;SDS011;43467;50.890;5.982;2022-07-04T11:29:52;5.93;;;1.42;;
36233;SDS011;43467;50.890;5.982;2022-07-04T11:32:19;6.90;;;2.03;;
36233;SDS011;43467;50.890;5.982;2022-07-04T11:34:45;6.07;;;1.50;;
36233;SDS011;43467;50.890;5.982;2022-07-04T11:37:11;3.50;;;1.25;;
36233;SDS011;43467;50.890;5.982;2022-07-04T11:39:37;7.78;;;1.35;;
36233;SDS011;43467;50.890;5.982;2022-07-04T11:42:02;2.28;;;0.98;;
36233;SDS011;43467;50.890;5.982;2022-07-04T11:44:47;6.28;;;1.65;;
36233;SDS011;43467;50.890;5.982;2022-07-04T11:47:40;3.85;;;1.00;;
36233;SDS011;43467;50.890;5.982;2022-07-04T11:50:08;2.17;;;1.30;;
36233;SDS011;43467;50.890;5.982;2022-07-04T11:52:42;2.78;;;1.13;;
36233;SDS011;43467;50.890;5.982;2022-07-04T11:55:09;2.17;;;0.80;;
36233;SDS011;43467;50.890;5.982;2022-07-04T11:57:37;2.47;;;0.90;;
36233;SDS011;43467;50.890;5.982;2022-07-04T12:00:08;3.33;;;0.95;;
36233;SDS011;43467;50.890;5.982;2022-07-04T12:02:35;7.30;;;1.13;;
36233;SDS011;43467;50.890;5.982;2022-07-04T12:05:03;6.90;;;1.13;;
36233;SDS011;43467;50.890;5.982;2022-07-04T12:07:34;5.10;;;1.10;;
36233;SDS011;43467;50.890;5.982;2022-07-04T12:10:11;6.63;;;1.33;;
36233;SDS011;43467;50.890;5.982;2022-07-04T12:12:55;4.28;;;1.50;;
36233;SDS011;43467;50.890;5.982;2022-07-04T12:15:21;4.68;;;1.08;;
36233;SDS011;43467;50.890;5.982;2022-07-04T12:17:51;3.50;;;0.98;;
36233;SDS011;43467;50.890;5.982;2022-07-04T12:20:19;3.67;;;1.00;;
36233;SDS011;43467;50.890;5.982;2022-07-04T12:22:50;2.10;;;0.85;;
36233;SDS011;43467;50.890;5.982;2022-07-04T12:25:25;4.95;;;1.20;;
36233;SDS011;43467;50.890;5.982;2022-07-04T12:27:59;4.07;;;1.10;;
36233;SDS011;43467;50.890;5.982;2022-07-04T12:30:27;6.13;;;1.38;;
36233;SDS011;43467;50.890;5.982;2022-07-04T12:33:01;4.18;;;1.30;;
36233;SDS011;43467;50.890;5.982;2022-07-04T12:35:47;12.63;;;1.17;;
36233;SDS011;43467;50.890;5.982;2022-07-04T12:40:57;2.63;;;0.98;;
36233;SDS011;43467;50.890;5.982;2022-07-04T12:48:53;3.85;;;1.10;;
36233;SDS011;43467;50.890;5.982;2022-07-04T12:51:24;4.72;;;1.25;;
36233;SDS011;43467;50.890;5.982;2022-07-04T12:53:51;5.82;;;1.52;;
36233;SDS011;43467;50.890;5.982;2022-07-04T12:56:34;3.88;;;0.95;;
36233;SDS011;43467;50.890;5.982;2022-07-04T12:59:03;7.82;;;0.90;;
36233;SDS011;43467;50.890;5.982;2022-07-04T13:01:30;5.57;;;0.80;;
36233;SDS011;43467;50.890;5.982;2022-07-04T13:03:56;2.45;;;1.00;;
36233;SDS011;43467;50.890;5.982;2022-07-04T13:06:21;2.10;;;0.82;;
36233;SDS011;43467;50.890;5.982;2022-07-04T13:08:47;3.28;;;0.80;;
36233;SDS011;43467;50.890;5.982;2022-07-04T13:11:12;2.03;;;1.05;;
36233;SDS011;43467;50.890;5.982;2022-07-04T13:13:56;5.43;;;1.20;;
36233;SDS011;43467;50.890;5.982;2022-07-04T13:16:21;4.22;;;1.33;;
36233;SDS011;43467;50.890;5.982;2022-07-04T13:18:47;4.10;;;0.85;;
36233;SDS011;43467;50.890;5.982;2022-07-04T13:21:12;5.30;;;1.02;;
36233;SDS011;43467;50.890;5.982;2022-07-04T13:23:38;2.67;;;1.02;;
36233;SDS011;43467;50.890;5.982;2022-07-04T13:26:03;4.45;;;0.98;;
36233;SDS011;43467;50.890;5.982;2022-07-04T13:28:29;2.25;;;1.13;;
36233;SDS011;43467;50.890;5.982;2022-07-04T13:30:54;1.77;;;1.10;;
36233;SDS011;43467;50.890;5.982;2022-07-04T13:33:19;2.40;;;0.80;;
36233;SDS011;43467;50.890;5.982;2022-07-04T13:35:45;4.03;;;1.33;;
36233;SDS011;43467;50.890;5.982;2022-07-04T13:38:10;3.83;;;0.95;;
36233;SDS011;43467;50.890;5.982;2022-07-04T13:40:36;5.97;;;1.10;;
36233;SDS011;43467;50.890;5.982;2022-07-04T13:43:01;2.13;;;0.93;;
36233;SDS011;43467;50.890;5.982;2022-07-04T13:45:34;4.63;;;1.30;;
36233;SDS011;43467;50.890;5.982;2022-07-04T13:48:00;3.03;;;1.00;;
36233;SDS011;43467;50.890;5.982;2022-07-04T13:50:25;6.28;;;1.52;;
36233;SDS011;43467;50.890;5.982;2022-07-04T13:52:51;4.38;;;1.73;;
36233;SDS011;43467;50.890;5.982;2022-07-04T13:55:16;2.38;;;1.05;;
36233;SDS011;43467;50.890;5.982;2022-07-04T13:57:42;7.07;;;1.55;;
36233;SDS011;43467;50.890;5.982;2022-07-04T14:00:07;2.63;;;1.00;;
36233;SDS011;43467;50.890;5.982;2022-07-04T14:02:33;2.95;;;1.00;;
36233;SDS011;43467;50.890;5.982;2022-07-04T14:04:59;2.22;;;1.00;;
36233;SDS011;43467;50.890;5.982;2022-07-04T14:07:24;1.60;;;0.95;;
36233;SDS011;43467;50.890;5.982;2022-07-04T14:09:50;4.75;;;1.25;;
36233;SDS011;43467;50.890;5.982;2022-07-04T14:12:15;3.85;;;1.05;;
36233;SDS011;43467;50.890;5.982;2022-07-04T14:14:41;2.58;;;1.05;;
36233;SDS011;43467;50.890;5.982;2022-07-04T14:17:07;1.98;;;0.90;;
36233;SDS011;43467;50.890;5.982;2022-07-04T14:19:32;4.70;;;1.08;;
36233;SDS011;43467;50.890;5.982;2022-07-04T14:21:58;1.95;;;1.08;;
36233;SDS011;43467;50.890;5.982;2022-07-04T14:24:24;4.32;;;1.40;;
36233;SDS011;43467;50.890;5.982;2022-07-04T14:26:52;2.97;;;0.90;;
36233;SDS011;43467;50.890;5.982;2022-07-04T14:29:18;2.08;;;0.90;;
36233;SDS011;43467;50.890;5.982;2022-07-04T14:31:44;2.47;;;0.90;;
36233;SDS011;43467;50.890;5.982;2022-07-04T14:34:09;1.92;;;1.00;;
36233;SDS011;43467;50.890;5.982;2022-07-04T14:36:37;4.78;;;1.30;;
36233;SDS011;43467;50.890;5.982;2022-07-04T14:39:02;2.95;;;1.17;;
36233;SDS011;43467;50.890;5.982;2022-07-04T14:41:28;4.78;;;1.20;;
36233;SDS011;43467;50.890;5.982;2022-07-04T14:43:54;3.63;;;0.90;;
36233;SDS011;43467;50.890;5.982;2022-07-04T14:46:22;2.67;;;1.02;;
36233;SDS011;43467;50.890;5.982;2022-07-04T14:48:47;1.65;;;0.85;;
36233;SDS011;43467;50.890;5.982;2022-07-04T14:51:13;1.98;;;0.70;;
36233;SDS011;43467;50.890;5.982;2022-07-04T14:53:38;3.88;;;0.90;;
36233;SDS011;43467;50.890;5.982;2022-07-04T14:56:03;1.05;;;0.70;;
36233;SDS011;43467;50.890;5.982;2022-07-04T14:58:29;2.55;;;0.60;;
36233;SDS011;43467;50.890;5.982;2022-07-04T15:00:55;4.18;;;0.90;;
36233;SDS011;43467;50.890;5.982;2022-07-04T15:03:20;2.80;;;1.00;;
36233;SDS011;43467;50.890;5.982;2022-07-04T15:05:46;3.55;;;1.25;;
36233;SDS011;43467;50.890;5.982;2022-07-04T15:08:12;2.63;;;1.33;;
36233;SDS011;43467;50.890;5.982;2022-07-04T15:10:37;2.55;;;0.73;;
36233;SDS011;43467;50.890;5.982;2022-07-04T15:13:03;4.70;;;0.65;;
36233;SDS011;43467;50.890;5.982;2022-07-04T15:15:29;1.85;;;0.68;;
36233;SDS011;43467;50.890;5.982;2022-07-04T15:17:54;3.75;;;0.63;;